PWSweather.com
Personal Weather Stations
Station Observations
NAGEO265NE
Bedzin GrodziecPL 42-506

Bedzin GrodziecPL 42-506

Lat: 50.347, Lon: 19.079

Elevation: 948

Station Type: WH1080

http://www.meteo-grodziec.pl/

High Low Average
Temperature 39.0°F3.9°C 23.2°F-4.9°C 29.7°F-1.3°C
Dew Point 32.5°F0.3°C 20.5°F-6.4°C 26.0°F-3.3°C
Winds 4.0 mph 6.4 kmh Calm Calm 1.0 mph ENE1.6 kmh ENE
Wind Gusts 9.0 mph14.5 kmh -- 2.0 mph3.2 kmh
Humidity 95% 63% 87%
Pressure 29.67 in1004.7 mb 29.62 in1003.0 mb -
Precipitation 0.02 in0.5 mm - -
Hour Temp Dew Point Humidity Winds Wind Gusts Pressure Precip Precip Rate Daily Precip Total
12:00 AM 26.4°F-3.1°C 25.2°F-3.8°C 95% Calm Calm -- 29.64 in1003.7 mb 0.00 in0.0 mm 0.00 in0.0 mm 0.00 in0.0 mm
12:05 AM 26.4°F-3.1°C 25.3°F-3.7°C 95% Calm Calm -- 29.64 in1003.7 mb 0.00 in0.0 mm 0.00 in0.0 mm 0.00 in0.0 mm
12:10 AM 26.4°F-3.1°C 25.3°F-3.7°C 95% Calm Calm -- 29.64 in1003.7 mb 0.00 in0.0 mm 0.00 in0.0 mm 0.00 in0.0 mm
12:15 AM 26.6°F-3.0°C 25.3°F-3.7°C 95% Calm Calm -- 29.64 in1003.7 mb 0.00 in0.0 mm 0.00 in0.0 mm 0.00 in0.0 mm
12:20 AM 26.8°F-2.9°C 25.5°F-3.6°C 95% Calm Calm -- 29.64 in1003.7 mb 0.00 in0.0 mm 0.00 in0.0 mm 0.00 in0.0 mm
12:25 AM 27.0°F-2.8°C 25.7°F-3.5°C 95% Calm Calm 1.0 mph1.6 kmh 29.64 in1003.7 mb 0.00 in0.0 mm 0.00 in0.0 mm 0.00 in0.0 mm
12:30 AM 27.1°F-2.7°C 25.9°F-3.4°C 95% Calm Calm 1.0 mph1.6 kmh 29.64 in1003.7 mb 0.00 in0.0 mm 0.00 in0.0 mm 0.00 in0.0 mm
12:35 AM 27.1°F-2.7°C 25.9°F-3.4°C 95% Calm Calm 1.0 mph1.6 kmh 29.64 in1003.7 mb 0.00 in0.0 mm 0.00 in0.0 mm 0.00 in0.0 mm
12:40 AM 27.1°F-2.7°C 25.9°F-3.4°C 95% Calm Calm -- 29.64 in1003.7 mb 0.00 in0.0 mm 0.00 in0.0 mm 0.00 in0.0 mm
12:45 AM 27.1°F-2.7°C 25.9°F-3.4°C 95% Calm Calm -- 29.64 in1003.7 mb 0.00 in0.0 mm 0.00 in0.0 mm 0.00 in0.0 mm
12:50 AM 27.1°F-2.7°C 25.9°F-3.4°C 95% Calm Calm -- 29.63 in1003.4 mb 0.00 in0.0 mm 0.00 in0.0 mm 0.00 in0.0 mm
12:55 AM 27.1°F-2.7°C 25.9°F-3.4°C 95% Calm Calm -- 29.63 in1003.4 mb 0.00 in0.0 mm 0.00 in0.0 mm 0.00 in0.0 mm
01:00 AM 27.1°F-2.7°C 25.9°F-3.4°C 95% Calm Calm -- 29.63 in1003.4 mb 0.00 in0.0 mm 0.00 in0.0 mm 0.00 in0.0 mm
01:05 AM 27.1°F-2.7°C 25.9°F-3.4°C 95% Calm Calm -- 29.63 in1003.4 mb 0.00 in0.0 mm 0.00 in0.0 mm 0.00 in0.0 mm
01:10 AM 27.3°F-2.6°C 26.1°F-3.3°C 95% Calm Calm 1.0 mph1.6 kmh 29.63 in1003.4 mb 0.00 in0.0 mm 0.00 in0.0 mm 0.00 in0.0 mm
01:15 AM 27.3°F-2.6°C 26.2°F-3.2°C 95% Calm Calm 1.0 mph1.6 kmh 29.63 in1003.4 mb 0.00 in0.0 mm 0.00 in0.0 mm 0.00 in0.0 mm
01:20 AM 27.3°F-2.6°C 26.2°F-3.2°C 95% Calm Calm 1.0 mph1.6 kmh 29.63 in1003.4 mb 0.00 in0.0 mm 0.00 in0.0 mm 0.00 in0.0 mm
01:25 AM 27.5°F-2.5°C 26.2°F-3.2°C 95% Calm Calm 1.0 mph1.6 kmh 29.63 in1003.4 mb 0.00 in0.0 mm 0.00 in0.0 mm 0.00 in0.0 mm
01:30 AM 27.3°F-2.6°C 26.2°F-3.2°C 95% Calm Calm -- 29.63 in1003.4 mb 0.00 in0.0 mm 0.00 in0.0 mm 0.00 in0.0 mm
01:35 AM 27.1°F-2.7°C 25.9°F-3.4°C 95% Calm Calm -- 29.63 in1003.4 mb 0.00 in0.0 mm 0.00 in0.0 mm 0.00 in0.0 mm
01:40 AM 27.0°F-2.8°C 25.7°F-3.5°C 95% Calm Calm -- 29.63 in1003.4 mb 0.00 in0.0 mm 0.00 in0.0 mm 0.00 in0.0 mm
01:45 AM 26.8°F-2.9°C 25.5°F-3.6°C 95% Calm Calm -- 29.63 in1003.4 mb 0.00 in0.0 mm 0.00 in0.0 mm 0.00 in0.0 mm
01:50 AM 26.4°F-3.1°C 25.3°F-3.7°C 95% Calm Calm -- 29.63 in1003.4 mb 0.00 in0.0 mm 0.00 in0.0 mm 0.00 in0.0 mm
01:55 AM 26.2°F-3.2°C 25.0°F-3.9°C 95% Calm Calm -- 29.64 in1003.7 mb 0.00 in0.0 mm 0.00 in0.0 mm 0.00 in0.0 mm
02:00 AM 26.2°F-3.2°C 25.0°F-3.9°C 95% Calm Calm -- 29.64 in1003.7 mb 0.00 in0.0 mm 0.00 in0.0 mm 0.00 in0.0 mm
02:05 AM 26.2°F-3.2°C 25.0°F-3.9°C 95% Calm Calm -- 29.64 in1003.7 mb 0.00 in0.0 mm 0.00 in0.0 mm 0.00 in0.0 mm
02:10 AM 26.2°F-3.2°C 25.0°F-3.9°C 95% Calm Calm -- 29.64 in1003.7 mb 0.00 in0.0 mm 0.00 in0.0 mm 0.00 in0.0 mm
02:15 AM 26.2°F-3.2°C 25.0°F-3.9°C 95% Calm Calm -- 29.64 in1003.7 mb 0.00 in0.0 mm 0.00 in0.0 mm 0.00 in0.0 mm
02:20 AM 26.2°F-3.2°C 25.0°F-3.9°C 95% Calm Calm -- 29.64 in1003.7 mb 0.00 in0.0 mm 0.00 in0.0 mm 0.00 in0.0 mm
02:25 AM 26.2°F-3.2°C 25.0°F-3.9°C 95% Calm Calm -- 29.64 in1003.7 mb 0.00 in0.0 mm 0.00 in0.0 mm 0.00 in0.0 mm
02:30 AM 26.4°F-3.1°C 25.2°F-3.8°C 95% Calm Calm -- 29.64 in1003.7 mb 0.00 in0.0 mm 0.00 in0.0 mm 0.00 in0.0 mm
02:35 AM 26.4°F-3.1°C 25.2°F-3.8°C 95% Calm Calm -- 29.64 in1003.7 mb 0.00 in0.0 mm 0.00 in0.0 mm 0.00 in0.0 mm
02:40 AM 26.8°F-2.9°C 25.5°F-3.6°C 95% Calm Calm -- 29.64 in1003.7 mb 0.00 in0.0 mm 0.00 in0.0 mm 0.00 in0.0 mm
02:45 AM 27.0°F-2.8°C 25.7°F-3.5°C 95% Calm Calm -- 29.64 in1003.7 mb 0.00 in0.0 mm 0.00 in0.0 mm 0.00 in0.0 mm
02:50 AM 27.0°F-2.8°C 25.7°F-3.5°C 95% Calm Calm -- 29.64 in1003.7 mb 0.00 in0.0 mm 0.00 in0.0 mm 0.00 in0.0 mm
02:55 AM 27.0°F-2.8°C 25.7°F-3.5°C 95% Calm Calm -- 29.64 in1003.7 mb 0.00 in0.0 mm 0.00 in0.0 mm 0.00 in0.0 mm
03:00 AM 27.0°F-2.8°C 25.7°F-3.5°C 95% Calm Calm -- 29.64 in1003.7 mb 0.00 in0.0 mm 0.00 in0.0 mm 0.00 in0.0 mm
03:05 AM 26.2°F-3.2°C 24.8°F-4.0°C 94% Calm Calm -- 29.64 in1003.7 mb 0.00 in0.0 mm 0.00 in0.0 mm 0.00 in0.0 mm
03:10 AM 26.2°F-3.2°C 24.6°F-4.1°C 94% Calm Calm -- 29.64 in1003.7 mb 0.00 in0.0 mm 0.00 in0.0 mm 0.00 in0.0 mm
03:15 AM 26.2°F-3.2°C 25.0°F-3.9°C 95% Calm Calm -- 29.64 in1003.7 mb 0.00 in0.0 mm 0.00 in0.0 mm 0.00 in0.0 mm
03:20 AM 26.2°F-3.2°C 25.0°F-3.9°C 95% Calm Calm -- 29.63 in1003.4 mb 0.00 in0.0 mm 0.00 in0.0 mm 0.00 in0.0 mm
03:25 AM 26.2°F-3.2°C 25.0°F-3.9°C 95% Calm Calm -- 29.64 in1003.7 mb 0.00 in0.0 mm 0.00 in0.0 mm 0.00 in0.0 mm
03:30 AM 26.2°F-3.2°C 25.0°F-3.9°C 95% Calm Calm -- 29.64 in1003.7 mb 0.00 in0.0 mm 0.00 in0.0 mm 0.00 in0.0 mm
03:35 AM 26.1°F-3.3°C 24.8°F-4.0°C 95% Calm Calm -- 29.64 in1003.7 mb 0.00 in0.0 mm 0.00 in0.0 mm 0.00 in0.0 mm
03:40 AM 26.1°F-3.3°C 24.8°F-4.0°C 95% Calm Calm -- 29.64 in1003.7 mb 0.00 in0.0 mm 0.00 in0.0 mm 0.00 in0.0 mm
03:45 AM 26.1°F-3.3°C 24.8°F-4.0°C 95% Calm Calm -- 29.64 in1003.7 mb 0.00 in0.0 mm 0.00 in0.0 mm 0.00 in0.0 mm
03:50 AM 26.1°F-3.3°C 24.8°F-4.0°C 95% Calm Calm -- 29.64 in1003.7 mb 0.00 in0.0 mm 0.00 in0.0 mm 0.00 in0.0 mm
03:55 AM 26.2°F-3.2°C 25.0°F-3.9°C 95% Calm Calm -- 29.63 in1003.4 mb 0.00 in0.0 mm 0.00 in0.0 mm 0.00 in0.0 mm
04:00 AM 26.2°F-3.2°C 25.0°F-3.9°C 95% Calm Calm 1.0 mph1.6 kmh 29.63 in1003.4 mb 0.00 in0.0 mm 0.00 in0.0 mm 0.00 in0.0 mm
04:05 AM 26.4°F-3.1°C 25.3°F-3.7°C 95% Calm Calm 1.0 mph1.6 kmh 29.63 in1003.4 mb 0.00 in0.0 mm 0.00 in0.0 mm 0.00 in0.0 mm
04:10 AM 26.8°F-2.9°C 25.5°F-3.6°C 95% Calm Calm -- 29.63 in1003.4 mb 0.00 in0.0 mm 0.00 in0.0 mm 0.00 in0.0 mm
04:15 AM 27.0°F-2.8°C 25.7°F-3.5°C 95% Calm Calm -- 29.63 in1003.4 mb 0.00 in0.0 mm 0.00 in0.0 mm 0.00 in0.0 mm
04:20 AM 27.0°F-2.8°C 25.7°F-3.5°C 95% Calm Calm -- 29.63 in1003.4 mb 0.00 in0.0 mm 0.00 in0.0 mm 0.00 in0.0 mm
04:25 AM 27.1°F-2.7°C 25.9°F-3.4°C 95% Calm Calm -- 29.63 in1003.4 mb 0.00 in0.0 mm 0.00 in0.0 mm 0.00 in0.0 mm
04:30 AM 27.1°F-2.7°C 25.9°F-3.4°C 95% Calm Calm -- 29.63 in1003.4 mb 0.00 in0.0 mm 0.00 in0.0 mm 0.00 in0.0 mm
04:35 AM 27.3°F-2.6°C 26.1°F-3.3°C 95% Calm Calm -- 29.63 in1003.4 mb 0.00 in0.0 mm 0.00 in0.0 mm 0.00 in0.0 mm
04:40 AM 27.3°F-2.6°C 26.1°F-3.3°C 95% Calm Calm -- 29.63 in1003.4 mb 0.00 in0.0 mm 0.00 in0.0 mm 0.00 in0.0 mm
04:45 AM 27.3°F-2.6°C 26.1°F-3.3°C 95% Calm Calm -- 29.63 in1003.4 mb 0.00 in0.0 mm 0.00 in0.0 mm 0.00 in0.0 mm
04:50 AM 27.1°F-2.7°C 25.9°F-3.4°C 95% Calm Calm -- 29.63 in1003.4 mb 0.00 in0.0 mm 0.00 in0.0 mm 0.00 in0.0 mm
04:55 AM 27.0°F-2.8°C 25.7°F-3.5°C 95% Calm Calm -- 29.63 in1003.4 mb 0.00 in0.0 mm 0.00 in0.0 mm 0.00 in0.0 mm
05:00 AM 27.0°F-2.8°C 25.7°F-3.5°C 95% Calm Calm -- 29.63 in1003.4 mb 0.00 in0.0 mm 0.00 in0.0 mm 0.00 in0.0 mm
05:05 AM 27.0°F-2.8°C 25.7°F-3.5°C 95% Calm Calm -- 29.63 in1003.4 mb 0.00 in0.0 mm 0.00 in0.0 mm 0.00 in0.0 mm
05:10 AM 27.0°F-2.8°C 25.7°F-3.5°C 95% Calm Calm -- 29.63 in1003.4 mb 0.00 in0.0 mm 0.00 in0.0 mm 0.00 in0.0 mm
05:15 AM 27.0°F-2.8°C 25.7°F-3.5°C 95% Calm Calm -- 29.63 in1003.4 mb 0.00 in0.0 mm 0.00 in0.0 mm 0.00 in0.0 mm
05:20 AM 27.1°F-2.7°C 25.9°F-3.4°C 95% Calm Calm -- 29.63 in1003.4 mb 0.00 in0.0 mm 0.00 in0.0 mm 0.00 in0.0 mm
05:25 AM 27.1°F-2.7°C 25.9°F-3.4°C 95% Calm Calm -- 29.63 in1003.4 mb 0.00 in0.0 mm 0.00 in0.0 mm 0.00 in0.0 mm
05:30 AM 27.3°F-2.6°C 26.1°F-3.3°C 95% Calm Calm -- 29.63 in1003.4 mb 0.00 in0.0 mm 0.00 in0.0 mm 0.00 in0.0 mm
05:35 AM 27.3°F-2.6°C 26.2°F-3.2°C 95% Calm Calm -- 29.63 in1003.4 mb 0.00 in0.0 mm 0.00 in0.0 mm 0.00 in0.0 mm
05:40 AM 27.5°F-2.5°C 26.2°F-3.2°C 95% Calm Calm -- 29.63 in1003.4 mb 0.00 in0.0 mm 0.00 in0.0 mm 0.00 in0.0 mm
05:45 AM 27.7°F-2.4°C 26.4°F-3.1°C 95% Calm Calm -- 29.63 in1003.4 mb 0.00 in0.0 mm 0.00 in0.0 mm 0.00 in0.0 mm
05:50 AM 27.9°F-2.3°C 26.6°F-3.0°C 95% Calm Calm -- 29.63 in1003.4 mb 0.00 in0.0 mm 0.00 in0.0 mm 0.00 in0.0 mm
05:55 AM 27.9°F-2.3°C 26.6°F-3.0°C 95% Calm Calm -- 29.63 in1003.4 mb 0.00 in0.0 mm 0.00 in0.0 mm 0.00 in0.0 mm
06:00 AM 27.9°F-2.3°C 26.6°F-3.0°C 95% Calm Calm -- 29.63 in1003.4 mb 0.00 in0.0 mm 0.00 in0.0 mm 0.00 in0.0 mm
06:05 AM 27.9°F-2.3°C 26.6°F-3.0°C 95% Calm Calm -- 29.63 in1003.4 mb 0.00 in0.0 mm 0.00 in0.0 mm 0.00 in0.0 mm
06:10 AM 27.9°F-2.3°C 26.6°F-3.0°C 95% Calm Calm -- 29.63 in1003.4 mb 0.00 in0.0 mm 0.00 in0.0 mm 0.00 in0.0 mm
06:15 AM 27.9°F-2.3°C 26.6°F-3.0°C 95% Calm Calm -- 29.63 in1003.4 mb 0.00 in0.0 mm 0.00 in0.0 mm 0.00 in0.0 mm
06:20 AM 27.7°F-2.4°C 26.4°F-3.1°C 95% Calm Calm -- 29.63 in1003.4 mb 0.00 in0.0 mm 0.00 in0.0 mm 0.00 in0.0 mm
06:25 AM 27.7°F-2.4°C 26.4°F-3.1°C 95% Calm Calm -- 29.63 in1003.4 mb 0.00 in0.0 mm 0.00 in0.0 mm 0.00 in0.0 mm
06:30 AM 27.7°F-2.4°C 26.4°F-3.1°C 95% Calm Calm -- 29.63 in1003.4 mb 0.00 in0.0 mm 0.00 in0.0 mm 0.00 in0.0 mm
06:35 AM 27.7°F-2.4°C 26.4°F-3.1°C 95% Calm Calm -- 29.63 in1003.4 mb 0.00 in0.0 mm 0.00 in0.0 mm 0.00 in0.0 mm
06:40 AM 27.7°F-2.4°C 26.4°F-3.1°C 95% Calm Calm 1.0 mph1.6 kmh 29.63 in1003.4 mb 0.00 in0.0 mm 0.00 in0.0 mm 0.00 in0.0 mm
06:45 AM 27.7°F-2.4°C 26.4°F-3.1°C 95% Calm Calm 1.0 mph1.6 kmh 29.63 in1003.4 mb 0.00 in0.0 mm 0.00 in0.0 mm 0.00 in0.0 mm
06:50 AM 27.7°F-2.4°C 26.4°F-3.1°C 95% Calm Calm 1.0 mph1.6 kmh 29.63 in1003.4 mb 0.00 in0.0 mm 0.00 in0.0 mm 0.00 in0.0 mm
06:55 AM 27.7°F-2.4°C 26.4°F-3.1°C 95% Calm Calm 1.0 mph1.6 kmh 29.63 in1003.4 mb 0.00 in0.0 mm 0.00 in0.0 mm 0.00 in0.0 mm
07:00 AM 27.7°F-2.4°C 26.4°F-3.1°C 95% Calm Calm 2.0 mph3.2 kmh 29.63 in1003.4 mb 0.00 in0.0 mm 0.00 in0.0 mm 0.00 in0.0 mm
07:05 AM 27.7°F-2.4°C 26.4°F-3.1°C 95% Calm Calm 2.0 mph3.2 kmh 29.63 in1003.4 mb 0.00 in0.0 mm 0.00 in0.0 mm 0.00 in0.0 mm
07:10 AM 27.7°F-2.4°C 26.4°F-3.1°C 95% Calm Calm 1.0 mph1.6 kmh 29.64 in1003.7 mb 0.00 in0.0 mm 0.00 in0.0 mm 0.00 in0.0 mm
07:15 AM 27.7°F-2.4°C 26.4°F-3.1°C 95% Calm Calm 2.0 mph3.2 kmh 29.64 in1003.7 mb 0.00 in0.0 mm 0.00 in0.0 mm 0.00 in0.0 mm
07:20 AM 27.7°F-2.4°C 26.4°F-3.1°C 95% Calm Calm 2.0 mph3.2 kmh 29.64 in1003.7 mb 0.00 in0.0 mm 0.00 in0.0 mm 0.00 in0.0 mm
07:25 AM 27.7°F-2.4°C 26.4°F-3.1°C 95% Calm Calm 2.0 mph3.2 kmh 29.64 in1003.7 mb 0.00 in0.0 mm 0.00 in0.0 mm 0.00 in0.0 mm
07:30 AM 27.7°F-2.4°C 26.4°F-3.1°C 95% 1.0 mph ENE1.6 kmh ENE 2.0 mph3.2 kmh 29.64 in1003.7 mb 0.00 in0.0 mm 0.00 in0.0 mm 0.00 in0.0 mm
07:35 AM 27.7°F-2.4°C 26.4°F-3.1°C 95% Calm Calm 2.0 mph3.2 kmh 29.64 in1003.7 mb 0.00 in0.0 mm 0.00 in0.0 mm 0.00 in0.0 mm
07:40 AM 27.7°F-2.4°C 26.4°F-3.1°C 95% Calm Calm 4.0 mph6.4 kmh 29.64 in1003.7 mb 0.00 in0.0 mm 0.00 in0.0 mm 0.00 in0.0 mm
07:45 AM 27.7°F-2.4°C 26.4°F-3.1°C 95% 1.0 mph E1.6 kmh E 5.0 mph8.0 kmh 29.64 in1003.7 mb 0.00 in0.0 mm 0.00 in0.0 mm 0.00 in0.0 mm
07:50 AM 27.7°F-2.4°C 26.4°F-3.1°C 95% 1.0 mph E1.6 kmh E 5.0 mph8.0 kmh 29.64 in1003.7 mb 0.00 in0.0 mm 0.00 in0.0 mm 0.00 in0.0 mm
07:55 AM 27.9°F-2.3°C 26.6°F-3.0°C 95% Calm Calm 2.0 mph3.2 kmh 29.64 in1003.7 mb 0.00 in0.0 mm 0.00 in0.0 mm 0.00 in0.0 mm
08:00 AM 27.9°F-2.3°C 26.6°F-3.0°C 95% Calm Calm 3.0 mph4.8 kmh 29.64 in1003.7 mb 0.00 in0.0 mm 0.00 in0.0 mm 0.00 in0.0 mm
08:05 AM 27.9°F-2.3°C 26.6°F-3.0°C 95% Calm Calm 3.0 mph4.8 kmh 29.64 in1003.7 mb 0.00 in0.0 mm 0.00 in0.0 mm 0.00 in0.0 mm
08:10 AM 28.0°F-2.2°C 26.8°F-2.9°C 95% Calm Calm 2.0 mph3.2 kmh 29.64 in1003.7 mb 0.00 in0.0 mm 0.00 in0.0 mm 0.00 in0.0 mm
08:15 AM 28.0°F-2.2°C 26.8°F-2.9°C 95% Calm Calm 3.0 mph4.8 kmh 29.64 in1003.7 mb 0.00 in0.0 mm 0.00 in0.0 mm 0.00 in0.0 mm
08:20 AM 28.2°F-2.1°C 27.0°F-2.8°C 95% 1.0 mph E1.6 kmh E 5.0 mph8.0 kmh 29.64 in1003.7 mb 0.00 in0.0 mm 0.00 in0.0 mm 0.00 in0.0 mm
08:25 AM 28.2°F-2.1°C 27.1°F-2.7°C 95% 1.0 mph E1.6 kmh E 5.0 mph8.0 kmh 29.64 in1003.7 mb 0.00 in0.0 mm 0.00 in0.0 mm 0.00 in0.0 mm
08:30 AM 28.2°F-2.1°C 27.1°F-2.7°C 95% 1.0 mph ENE1.6 kmh ENE 4.0 mph6.4 kmh 29.64 in1003.7 mb 0.00 in0.0 mm 0.00 in0.0 mm 0.00 in0.0 mm
08:35 AM 28.6°F-1.9°C 27.3°F-2.6°C 95% 1.0 mph ENE1.6 kmh ENE 4.0 mph6.4 kmh 29.64 in1003.7 mb 0.00 in0.0 mm 0.00 in0.0 mm 0.00 in0.0 mm
08:40 AM 28.8°F-1.8°C 27.5°F-2.5°C 95% 1.0 mph ENE1.6 kmh ENE 2.0 mph3.2 kmh 29.64 in1003.7 mb 0.00 in0.0 mm 0.00 in0.0 mm 0.00 in0.0 mm
08:45 AM 28.8°F-1.8°C 27.5°F-2.5°C 95% 1.0 mph E1.6 kmh E 2.0 mph3.2 kmh 29.64 in1003.7 mb 0.00 in0.0 mm 0.00 in0.0 mm 0.00 in0.0 mm
09:10 AM 29.7°F-1.3°C 28.4°F-2.0°C 95% Calm Calm 1.0 mph1.6 kmh 29.63 in1003.4 mb 0.00 in0.0 mm 0.00 in0.0 mm 0.00 in0.0 mm
09:15 AM 29.7°F-1.3°C 28.4°F-2.0°C 95% Calm Calm 1.0 mph1.6 kmh 29.64 in1003.7 mb 0.00 in0.0 mm 0.00 in0.0 mm 0.00 in0.0 mm
09:20 AM 29.8°F-1.2°C 28.6°F-1.9°C 95% Calm Calm 1.0 mph1.6 kmh 29.64 in1003.7 mb 0.00 in0.0 mm 0.00 in0.0 mm 0.00 in0.0 mm
09:25 AM 30.0°F-1.1°C 28.8°F-1.8°C 95% Calm Calm -- 29.64 in1003.7 mb 0.00 in0.0 mm 0.00 in0.0 mm 0.00 in0.0 mm
09:30 AM 30.2°F-1.0°C 28.9°F-1.7°C 95% Calm Calm -- 29.64 in1003.7 mb 0.00 in0.0 mm 0.00 in0.0 mm 0.00 in0.0 mm
09:35 AM 30.0°F-1.1°C 28.8°F-1.8°C 95% Calm Calm 2.0 mph3.2 kmh 29.64 in1003.7 mb 0.00 in0.0 mm 0.00 in0.0 mm 0.00 in0.0 mm
09:40 AM 30.0°F-1.1°C 28.8°F-1.8°C 95% Calm Calm 2.0 mph3.2 kmh 29.64 in1003.7 mb 0.00 in0.0 mm 0.00 in0.0 mm 0.00 in0.0 mm
09:45 AM 30.2°F-1.0°C 28.9°F-1.7°C 95% Calm Calm 2.0 mph3.2 kmh 29.64 in1003.7 mb 0.00 in0.0 mm 0.00 in0.0 mm 0.00 in0.0 mm
09:50 AM 30.4°F-0.9°C 29.1°F-1.6°C 95% Calm Calm 2.0 mph3.2 kmh 29.64 in1003.7 mb 0.00 in0.0 mm 0.00 in0.0 mm 0.00 in0.0 mm
09:55 AM 30.6°F-0.8°C 28.9°F-1.7°C 94% Calm Calm 2.0 mph3.2 kmh 29.64 in1003.7 mb 0.00 in0.0 mm 0.00 in0.0 mm 0.00 in0.0 mm
10:00 AM 30.7°F-0.7°C 29.5°F-1.4°C 95% Calm Calm 2.0 mph3.2 kmh 29.64 in1003.7 mb 0.00 in0.0 mm 0.00 in0.0 mm 0.00 in0.0 mm
10:05 AM 30.7°F-0.7°C 29.3°F-1.5°C 94% Calm Calm 1.0 mph1.6 kmh 29.64 in1003.7 mb 0.00 in0.0 mm 0.00 in0.0 mm 0.00 in0.0 mm
10:10 AM 30.9°F-0.6°C 29.3°F-1.5°C 94% Calm Calm 1.0 mph1.6 kmh 29.64 in1003.7 mb 0.00 in0.0 mm 0.00 in0.0 mm 0.00 in0.0 mm
10:15 AM 30.7°F-0.7°C 29.3°F-1.5°C 94% Calm Calm -- 29.64 in1003.7 mb 0.00 in0.0 mm 0.00 in0.0 mm 0.00 in0.0 mm
10:20 AM 30.9°F-0.6°C 29.3°F-1.5°C 94% Calm Calm 2.0 mph3.2 kmh 29.64 in1003.7 mb 0.00 in0.0 mm 0.00 in0.0 mm 0.00 in0.0 mm
10:25 AM 31.1°F-0.5°C 29.7°F-1.3°C 94% Calm Calm 2.0 mph3.2 kmh 29.64 in1003.7 mb 0.00 in0.0 mm 0.00 in0.0 mm 0.00 in0.0 mm
10:30 AM 31.5°F-0.3°C 29.8°F-1.2°C 94% Calm Calm 1.0 mph1.6 kmh 29.64 in1003.7 mb 0.00 in0.0 mm 0.00 in0.0 mm 0.00 in0.0 mm
10:35 AM 31.6°F-0.2°C 30.0°F-1.1°C 94% Calm Calm 1.0 mph1.6 kmh 29.64 in1003.7 mb 0.00 in0.0 mm 0.00 in0.0 mm 0.00 in0.0 mm
10:40 AM 31.8°F-0.1°C 30.2°F-1.0°C 94% Calm Calm 2.0 mph3.2 kmh 29.64 in1003.7 mb 0.00 in0.0 mm 0.00 in0.0 mm 0.00 in0.0 mm
10:45 AM 32.0°F0.0°C 30.4°F-0.9°C 94% Calm Calm 2.0 mph3.2 kmh 29.64 in1003.7 mb 0.00 in0.0 mm 0.00 in0.0 mm 0.00 in0.0 mm
10:50 AM 32.4°F0.2°C 30.7°F-0.7°C 94% Calm Calm 2.0 mph3.2 kmh 29.64 in1003.7 mb 0.00 in0.0 mm 0.00 in0.0 mm 0.00 in0.0 mm
10:55 AM 32.4°F0.2°C 30.9°F-0.6°C 94% Calm Calm 2.0 mph3.2 kmh 29.64 in1003.7 mb 0.00 in0.0 mm 0.00 in0.0 mm 0.00 in0.0 mm
11:00 AM 32.7°F0.4°C 30.9°F-0.6°C 93% Calm Calm 3.0 mph4.8 kmh 29.64 in1003.7 mb 0.00 in0.0 mm 0.00 in0.0 mm 0.00 in0.0 mm
11:05 AM 32.9°F0.5°C 31.1°F-0.5°C 93% Calm Calm 3.0 mph4.8 kmh 29.64 in1003.7 mb 0.00 in0.0 mm 0.00 in0.0 mm 0.00 in0.0 mm
11:10 AM 33.3°F0.7°C 31.1°F-0.5°C 92% Calm Calm 2.0 mph3.2 kmh 29.64 in1003.7 mb 0.00 in0.0 mm 0.00 in0.0 mm 0.00 in0.0 mm
11:15 AM 33.3°F0.7°C 31.3°F-0.4°C 92% Calm Calm 2.0 mph3.2 kmh 29.64 in1003.7 mb 0.00 in0.0 mm 0.00 in0.0 mm 0.00 in0.0 mm
11:20 AM 33.4°F0.8°C 31.1°F-0.5°C 91% Calm Calm 3.0 mph4.8 kmh 29.64 in1003.7 mb 0.00 in0.0 mm 0.00 in0.0 mm 0.00 in0.0 mm
11:25 AM 34.0°F1.1°C 31.6°F-0.2°C 91% Calm Calm 3.0 mph4.8 kmh 29.63 in1003.4 mb 0.00 in0.0 mm 0.00 in0.0 mm 0.00 in0.0 mm
11:30 AM 34.3°F1.3°C 31.6°F-0.2°C 90% Calm Calm 1.0 mph1.6 kmh 29.63 in1003.4 mb 0.00 in0.0 mm 0.00 in0.0 mm 0.00 in0.0 mm
11:35 AM 35.1°F1.7°C 32.5°F0.3°C 90% Calm Calm 2.0 mph3.2 kmh 29.63 in1003.4 mb 0.00 in0.0 mm 0.00 in0.0 mm 0.00 in0.0 mm
11:40 AM 35.2°F1.8°C 31.8°F-0.1°C 87% Calm Calm 3.0 mph4.8 kmh 29.63 in1003.4 mb 0.00 in0.0 mm 0.00 in0.0 mm 0.00 in0.0 mm
11:45 AM 35.8°F2.1°C 31.6°F-0.2°C 85% 1.0 mph E1.6 kmh E 4.0 mph6.4 kmh 29.62 in1003.0 mb 0.00 in0.0 mm 0.00 in0.0 mm 0.00 in0.0 mm
11:50 AM 36.3°F2.4°C 32.0°F0.0°C 84% 1.0 mph SE1.6 kmh SE 4.0 mph6.4 kmh 29.62 in1003.0 mb 0.00 in0.0 mm 0.00 in0.0 mm 0.00 in0.0 mm
11:55 AM 36.5°F2.5°C 31.3°F-0.4°C 81% 1.0 mph S1.6 kmh S 7.0 mph11.3 kmh 29.62 in1003.0 mb 0.00 in0.0 mm 0.00 in0.0 mm 0.00 in0.0 mm
12:00 PM 36.7°F2.6°C 30.0°F-1.1°C 77% 2.0 mph S3.2 kmh S 7.0 mph11.3 kmh 29.62 in1003.0 mb 0.00 in0.0 mm 0.00 in0.0 mm 0.00 in0.0 mm
12:05 PM 36.7°F2.6°C 29.5°F-1.4°C 75% 3.0 mph S4.8 kmh S 6.0 mph9.7 kmh 29.62 in1003.0 mb 0.00 in0.0 mm 0.00 in0.0 mm 0.00 in0.0 mm
12:10 PM 36.9°F2.7°C 29.3°F-1.5°C 74% 3.0 mph S4.8 kmh S 6.0 mph9.7 kmh 29.62 in1003.0 mb 0.00 in0.0 mm 0.00 in0.0 mm 0.00 in0.0 mm
12:15 PM 37.0°F2.8°C 29.8°F-1.2°C 75% 2.0 mph S3.2 kmh S 6.0 mph9.7 kmh 29.62 in1003.0 mb 0.00 in0.0 mm 0.00 in0.0 mm 0.00 in0.0 mm
12:20 PM 37.4°F3.0°C 29.5°F-1.4°C 73% 1.0 mph S1.6 kmh S 6.0 mph9.7 kmh 29.62 in1003.0 mb 0.00 in0.0 mm 0.00 in0.0 mm 0.00 in0.0 mm
12:25 PM 37.0°F2.8°C 28.9°F-1.7°C 72% 2.0 mph S3.2 kmh S 6.0 mph9.7 kmh 29.62 in1003.0 mb 0.00 in0.0 mm 0.00 in0.0 mm 0.00 in0.0 mm
12:30 PM 37.2°F2.9°C 28.6°F-1.9°C 71% 3.0 mph S4.8 kmh S 6.0 mph9.7 kmh 29.62 in1003.0 mb 0.01 in0.3 mm 0.12 in3.0 mm 0.01 in0.3 mm
12:35 PM 37.0°F2.8°C 27.9°F-2.3°C 69% 3.0 mph S4.8 kmh S 6.0 mph9.7 kmh 29.62 in1003.0 mb 0.01 in0.3 mm 0.00 in0.0 mm 0.01 in0.3 mm
12:40 PM 37.2°F2.9°C 28.0°F-2.2°C 69% 3.0 mph S4.8 kmh S 6.0 mph9.7 kmh 29.62 in1003.0 mb 0.01 in0.3 mm 0.00 in0.0 mm 0.01 in0.3 mm
12:45 PM 37.6°F3.1°C 27.5°F-2.5°C 67% 2.0 mph S3.2 kmh S 7.0 mph11.3 kmh 29.62 in1003.0 mb 0.01 in0.3 mm 0.00 in0.0 mm 0.01 in0.3 mm
12:50 PM 37.8°F3.2°C 26.6°F-3.0°C 64% 3.0 mph SSW4.8 kmh SSW 7.0 mph11.3 kmh 29.62 in1003.0 mb 0.01 in0.3 mm 0.00 in0.0 mm 0.01 in0.3 mm
12:55 PM 37.8°F3.2°C 26.2°F-3.2°C 63% 4.0 mph SSW6.4 kmh SSW 7.0 mph11.3 kmh 29.62 in1003.0 mb 0.01 in0.3 mm 0.00 in0.0 mm 0.01 in0.3 mm
01:00 PM 37.6°F3.1°C 26.1°F-3.3°C 63% 4.0 mph S6.4 kmh S 7.0 mph11.3 kmh 29.62 in1003.0 mb 0.01 in0.3 mm 0.00 in0.0 mm 0.01 in0.3 mm
01:05 PM 37.6°F3.1°C 26.1°F-3.3°C 63% 3.0 mph S4.8 kmh S 6.0 mph9.7 kmh 29.62 in1003.0 mb 0.01 in0.3 mm 0.00 in0.0 mm 0.01 in0.3 mm
01:10 PM 37.0°F2.8°C 26.1°F-3.3°C 64% 2.0 mph SSW3.2 kmh SSW 6.0 mph9.7 kmh 29.62 in1003.0 mb 0.01 in0.3 mm 0.00 in0.0 mm 0.01 in0.3 mm
01:15 PM 37.0°F2.8°C 26.4°F-3.1°C 65% 1.0 mph SW1.6 kmh SW 5.0 mph8.0 kmh 29.62 in1003.0 mb 0.01 in0.3 mm 0.00 in0.0 mm 0.01 in0.3 mm
01:20 PM 36.9°F2.7°C 26.2°F-3.2°C 65% 1.0 mph SW1.6 kmh SW 4.0 mph6.4 kmh 29.62 in1003.0 mb 0.01 in0.3 mm 0.00 in0.0 mm 0.01 in0.3 mm
01:25 PM 37.0°F2.8°C 26.2°F-3.2°C 65% 1.0 mph SW1.6 kmh SW 4.0 mph6.4 kmh 29.62 in1003.0 mb 0.01 in0.3 mm 0.00 in0.0 mm 0.01 in0.3 mm
01:30 PM 37.0°F2.8°C 26.4°F-3.1°C 65% 1.0 mph SW1.6 kmh SW 6.0 mph9.7 kmh 29.62 in1003.0 mb 0.00 in0.0 mm 0.00 in0.0 mm 0.01 in0.3 mm
01:35 PM 37.2°F2.9°C 26.6°F-3.0°C 65% 1.0 mph SW1.6 kmh SW 6.0 mph9.7 kmh 29.62 in1003.0 mb 0.00 in0.0 mm 0.00 in0.0 mm 0.01 in0.3 mm
01:40 PM 37.6°F3.1°C 27.0°F-2.8°C 65% 2.0 mph SW3.2 kmh SW 6.0 mph9.7 kmh 29.62 in1003.0 mb 0.00 in0.0 mm 0.00 in0.0 mm 0.01 in0.3 mm
01:45 PM 37.9°F3.3°C 27.3°F-2.6°C 65% 2.0 mph SW3.2 kmh SW 6.0 mph9.7 kmh 29.62 in1003.0 mb 0.00 in0.0 mm 0.00 in0.0 mm 0.01 in0.3 mm
01:50 PM 38.7°F3.7°C 29.1°F-1.6°C 68% 2.0 mph WSW3.2 kmh WSW 6.0 mph9.7 kmh 29.62 in1003.0 mb 0.00 in0.0 mm 0.00 in0.0 mm 0.01 in0.3 mm
01:55 PM 39.0°F3.9°C 29.1°F-1.6°C 67% 1.0 mph WSW1.6 kmh WSW 4.0 mph6.4 kmh 29.62 in1003.0 mb 0.00 in0.0 mm 0.00 in0.0 mm 0.01 in0.3 mm
02:00 PM 38.7°F3.7°C 28.4°F-2.0°C 66% 2.0 mph SW3.2 kmh SW 7.0 mph11.3 kmh 29.62 in1003.0 mb 0.00 in0.0 mm 0.00 in0.0 mm 0.01 in0.3 mm
02:05 PM 38.1°F3.4°C 28.4°F-2.0°C 68% 4.0 mph SW6.4 kmh SW 8.0 mph12.9 kmh 29.62 in1003.0 mb 0.00 in0.0 mm 0.00 in0.0 mm 0.01 in0.3 mm
02:10 PM 38.1°F3.4°C 28.8°F-1.8°C 69% 4.0 mph SW6.4 kmh SW 9.0 mph14.5 kmh 29.62 in1003.0 mb 0.00 in0.0 mm 0.00 in0.0 mm 0.01 in0.3 mm
02:15 PM 37.8°F3.2°C 28.4°F-2.0°C 69% 3.0 mph SW4.8 kmh SW 9.0 mph14.5 kmh 29.62 in1003.0 mb 0.01 in0.3 mm 0.12 in3.0 mm 0.02 in0.5 mm
02:20 PM 37.4°F3.0°C 27.9°F-2.3°C 68% 4.0 mph SW6.4 kmh SW 9.0 mph14.5 kmh 29.62 in1003.0 mb 0.01 in0.3 mm 0.00 in0.0 mm 0.02 in0.5 mm
02:25 PM 37.0°F2.8°C 27.9°F-2.3°C 69% 3.0 mph SW4.8 kmh SW 6.0 mph9.7 kmh 29.62 in1003.0 mb 0.01 in0.3 mm 0.00 in0.0 mm 0.02 in0.5 mm
02:30 PM 36.9°F2.7°C 27.9°F-2.3°C 70% 2.0 mph SW3.2 kmh SW 5.0 mph8.0 kmh 29.62 in1003.0 mb 0.01 in0.3 mm 0.00 in0.0 mm 0.02 in0.5 mm
02:35 PM 36.7°F2.6°C 27.7°F-2.4°C 70% 1.0 mph SW1.6 kmh SW 5.0 mph8.0 kmh 29.62 in1003.0 mb 0.01 in0.3 mm 0.00 in0.0 mm 0.02 in0.5 mm
02:40 PM 36.7°F2.6°C 27.9°F-2.3°C 70% 1.0 mph SW1.6 kmh SW 4.0 mph6.4 kmh 29.62 in1003.0 mb 0.01 in0.3 mm 0.00 in0.0 mm 0.02 in0.5 mm
02:45 PM 37.0°F2.8°C 28.2°F-2.1°C 70% 1.0 mph SW1.6 kmh SW 4.0 mph6.4 kmh 29.62 in1003.0 mb 0.01 in0.3 mm 0.00 in0.0 mm 0.02 in0.5 mm
02:50 PM 37.4°F3.0°C 28.2°F-2.1°C 69% 1.0 mph SW1.6 kmh SW 5.0 mph8.0 kmh 29.62 in1003.0 mb 0.01 in0.3 mm 0.00 in0.0 mm 0.02 in0.5 mm
02:55 PM 37.8°F3.2°C 27.7°F-2.4°C 67% 2.0 mph SW3.2 kmh SW 5.0 mph8.0 kmh 29.62 in1003.0 mb 0.01 in0.3 mm 0.00 in0.0 mm 0.02 in0.5 mm
03:00 PM 37.8°F3.2°C 27.3°F-2.6°C 66% 2.0 mph SW3.2 kmh SW 8.0 mph12.9 kmh 29.62 in1003.0 mb 0.01 in0.3 mm 0.00 in0.0 mm 0.02 in0.5 mm
03:05 PM 37.6°F3.1°C 27.3°F-2.6°C 66% 3.0 mph SW4.8 kmh SW 8.0 mph12.9 kmh 29.62 in1003.0 mb 0.01 in0.3 mm 0.00 in0.0 mm 0.02 in0.5 mm
03:10 PM 37.6°F3.1°C 27.3°F-2.6°C 66% 3.0 mph SW4.8 kmh SW 8.0 mph12.9 kmh 29.62 in1003.0 mb 0.01 in0.3 mm 0.00 in0.0 mm 0.02 in0.5 mm
03:15 PM 37.6°F3.1°C 27.3°F-2.6°C 66% 2.0 mph SW3.2 kmh SW 6.0 mph9.7 kmh 29.62 in1003.0 mb 0.00 in0.0 mm 0.00 in0.0 mm 0.02 in0.5 mm
03:20 PM 37.6°F3.1°C 27.1°F-2.7°C 66% 2.0 mph SW3.2 kmh SW 6.0 mph9.7 kmh 29.62 in1003.0 mb 0.00 in0.0 mm 0.00 in0.0 mm 0.02 in0.5 mm
03:25 PM 37.8°F3.2°C 27.9°F-2.3°C 67% 1.0 mph SW1.6 kmh SW 5.0 mph8.0 kmh 29.62 in1003.0 mb 0.00 in0.0 mm 0.00 in0.0 mm 0.02 in0.5 mm
03:30 PM 37.8°F3.2°C 27.7°F-2.4°C 67% 1.0 mph SW1.6 kmh SW 4.0 mph6.4 kmh 29.62 in1003.0 mb 0.00 in0.0 mm 0.00 in0.0 mm 0.02 in0.5 mm
03:35 PM 37.6°F3.1°C 27.3°F-2.6°C 66% 1.0 mph SW1.6 kmh SW 4.0 mph6.4 kmh 29.62 in1003.0 mb 0.00 in0.0 mm 0.00 in0.0 mm 0.02 in0.5 mm
03:40 PM 37.2°F2.9°C 27.0°F-2.8°C 66% 1.0 mph SW1.6 kmh SW 4.0 mph6.4 kmh 29.62 in1003.0 mb 0.00 in0.0 mm 0.00 in0.0 mm 0.02 in0.5 mm
03:45 PM 37.2°F2.9°C 27.0°F-2.8°C 66% 1.0 mph SW1.6 kmh SW 5.0 mph8.0 kmh 29.62 in1003.0 mb 0.00 in0.0 mm 0.00 in0.0 mm 0.02 in0.5 mm
03:50 PM 37.2°F2.9°C 27.0°F-2.8°C 66% 1.0 mph SW1.6 kmh SW 5.0 mph8.0 kmh 29.62 in1003.0 mb 0.00 in0.0 mm 0.00 in0.0 mm 0.02 in0.5 mm
03:55 PM 36.9°F2.7°C 26.6°F-3.0°C 66% 1.0 mph SW1.6 kmh SW 3.0 mph4.8 kmh 29.62 in1003.0 mb 0.00 in0.0 mm 0.00 in0.0 mm 0.02 in0.5 mm
04:00 PM 36.9°F2.7°C 26.8°F-2.9°C 67% 1.0 mph SW1.6 kmh SW 2.0 mph3.2 kmh 29.63 in1003.4 mb 0.00 in0.0 mm 0.00 in0.0 mm 0.02 in0.5 mm
04:05 PM 36.5°F2.5°C 26.6°F-3.0°C 67% Calm Calm 2.0 mph3.2 kmh 29.63 in1003.4 mb 0.00 in0.0 mm 0.00 in0.0 mm 0.02 in0.5 mm
04:10 PM 36.3°F2.4°C 26.8°F-2.9°C 68% Calm Calm 2.0 mph3.2 kmh 29.63 in1003.4 mb 0.00 in0.0 mm 0.00 in0.0 mm 0.02 in0.5 mm
04:15 PM 36.0°F2.2°C 26.4°F-3.1°C 68% Calm Calm 2.0 mph3.2 kmh 29.63 in1003.4 mb 0.00 in0.0 mm 0.00 in0.0 mm 0.02 in0.5 mm
04:20 PM 35.8°F2.1°C 26.6°F-3.0°C 69% Calm Calm 1.0 mph1.6 kmh 29.63 in1003.4 mb 0.00 in0.0 mm 0.00 in0.0 mm 0.02 in0.5 mm
04:25 PM 35.4°F1.9°C 26.6°F-3.0°C 70% Calm Calm -- 29.63 in1003.4 mb 0.00 in0.0 mm 0.00 in0.0 mm 0.02 in0.5 mm
04:30 PM 35.1°F1.7°C 26.6°F-3.0°C 71% Calm Calm -- 29.63 in1003.4 mb 0.00 in0.0 mm 0.00 in0.0 mm 0.02 in0.5 mm
04:35 PM 34.5°F1.4°C 26.1°F-3.3°C 71% Calm Calm -- 29.63 in1003.4 mb 0.00 in0.0 mm 0.00 in0.0 mm 0.02 in0.5 mm
04:40 PM 34.0°F1.1°C 25.9°F-3.4°C 72% Calm Calm -- 29.63 in1003.4 mb 0.00 in0.0 mm 0.00 in0.0 mm 0.02 in0.5 mm
04:45 PM 33.4°F0.8°C 25.7°F-3.5°C 73% Calm Calm -- 29.63 in1003.4 mb 0.00 in0.0 mm 0.00 in0.0 mm 0.02 in0.5 mm
04:50 PM 33.1°F0.6°C 25.7°F-3.5°C 74% Calm Calm -- 29.63 in1003.4 mb 0.00 in0.0 mm 0.00 in0.0 mm 0.02 in0.5 mm
04:55 PM 32.5°F0.3°C 25.5°F-3.6°C 75% Calm Calm -- 29.64 in1003.7 mb 0.00 in0.0 mm 0.00 in0.0 mm 0.02 in0.5 mm
05:00 PM 32.4°F0.2°C 25.5°F-3.6°C 76% Calm Calm -- 29.64 in1003.7 mb 0.00 in0.0 mm 0.00 in0.0 mm 0.02 in0.5 mm
05:05 PM 32.0°F0.0°C 25.5°F-3.6°C 77% Calm Calm -- 29.64 in1003.7 mb 0.00 in0.0 mm 0.00 in0.0 mm 0.02 in0.5 mm
05:10 PM 31.6°F-0.2°C 25.5°F-3.6°C 78% Calm Calm 1.0 mph1.6 kmh 29.64 in1003.7 mb 0.00 in0.0 mm 0.00 in0.0 mm 0.02 in0.5 mm
05:15 PM 30.9°F-0.6°C 25.0°F-3.9°C 78% 1.0 mph NNE1.6 kmh NNE 1.0 mph1.6 kmh 29.64 in1003.7 mb 0.00 in0.0 mm 0.00 in0.0 mm 0.02 in0.5 mm
05:20 PM 30.4°F-0.9°C 24.6°F-4.1°C 79% Calm Calm 1.0 mph1.6 kmh 29.64 in1003.7 mb 0.00 in0.0 mm 0.00 in0.0 mm 0.02 in0.5 mm
05:25 PM 30.0°F-1.1°C 25.0°F-3.9°C 81% Calm Calm 1.0 mph1.6 kmh 29.64 in1003.7 mb 0.00 in0.0 mm 0.00 in0.0 mm 0.02 in0.5 mm
05:30 PM 30.0°F-1.1°C 24.8°F-4.0°C 81% Calm Calm 1.0 mph1.6 kmh 29.64 in1003.7 mb 0.00 in0.0 mm 0.00 in0.0 mm 0.02 in0.5 mm
05:35 PM 29.8°F-1.2°C 25.0°F-3.9°C 82% 1.0 mph NNE1.6 kmh NNE 1.0 mph1.6 kmh 29.64 in1003.7 mb 0.00 in0.0 mm 0.00 in0.0 mm 0.02 in0.5 mm
05:40 PM 29.8°F-1.2°C 25.0°F-3.9°C 82% 1.0 mph NNE1.6 kmh NNE 1.0 mph1.6 kmh 29.64 in1003.7 mb 0.00 in0.0 mm 0.00 in0.0 mm 0.02 in0.5 mm
05:45 PM 29.8°F-1.2°C 25.0°F-3.9°C 82% 1.0 mph NNE1.6 kmh NNE 1.0 mph1.6 kmh 29.64 in1003.7 mb 0.00 in0.0 mm 0.00 in0.0 mm 0.02 in0.5 mm
05:50 PM 29.8°F-1.2°C 25.0°F-3.9°C 82% 1.0 mph NNE1.6 kmh NNE 1.0 mph1.6 kmh 29.64 in1003.7 mb 0.00 in0.0 mm 0.00 in0.0 mm 0.02 in0.5 mm
05:55 PM 29.5°F-1.4°C 24.6°F-4.1°C 82% 1.0 mph NNE1.6 kmh NNE 1.0 mph1.6 kmh 29.64 in1003.7 mb 0.00 in0.0 mm 0.00 in0.0 mm 0.02 in0.5 mm
06:00 PM 29.3°F-1.5°C 24.4°F-4.2°C 82% 1.0 mph NNE1.6 kmh NNE 1.0 mph1.6 kmh 29.64 in1003.7 mb 0.00 in0.0 mm 0.00 in0.0 mm 0.02 in0.5 mm
06:05 PM 29.1°F-1.6°C 24.6°F-4.1°C 83% Calm Calm 1.0 mph1.6 kmh 29.64 in1003.7 mb 0.00 in0.0 mm 0.00 in0.0 mm 0.02 in0.5 mm
06:10 PM 28.9°F-1.7°C 24.4°F-4.2°C 83% Calm Calm 1.0 mph1.6 kmh 29.64 in1003.7 mb 0.00 in0.0 mm 0.00 in0.0 mm 0.02 in0.5 mm
06:15 PM 28.9°F-1.7°C 24.6°F-4.1°C 84% 1.0 mph NNE1.6 kmh NNE 1.0 mph1.6 kmh 29.64 in1003.7 mb 0.00 in0.0 mm 0.00 in0.0 mm 0.02 in0.5 mm
06:20 PM 28.9°F-1.7°C 24.8°F-4.0°C 84% 1.0 mph NNE1.6 kmh NNE 1.0 mph1.6 kmh 29.64 in1003.7 mb 0.00 in0.0 mm 0.00 in0.0 mm 0.02 in0.5 mm
06:25 PM 29.1°F-1.6°C 24.6°F-4.1°C 83% 1.0 mph NNE1.6 kmh NNE 1.0 mph1.6 kmh 29.64 in1003.7 mb 0.00 in0.0 mm 0.00 in0.0 mm 0.02 in0.5 mm
06:30 PM 28.6°F-1.9°C 24.1°F-4.4°C 83% 1.0 mph NNE1.6 kmh NNE 2.0 mph3.2 kmh 29.64 in1003.7 mb 0.00 in0.0 mm 0.00 in0.0 mm 0.02 in0.5 mm
06:35 PM 28.6°F-1.9°C 24.4°F-4.2°C 84% 1.0 mph NNE1.6 kmh NNE 2.0 mph3.2 kmh 29.65 in1004.1 mb 0.00 in0.0 mm 0.00 in0.0 mm 0.02 in0.5 mm
06:40 PM 28.4°F-2.0°C 24.3°F-4.3°C 84% 1.0 mph NNE1.6 kmh NNE 2.0 mph3.2 kmh 29.65 in1004.1 mb 0.00 in0.0 mm 0.00 in0.0 mm 0.02 in0.5 mm
06:45 PM 28.0°F-2.2°C 23.7°F-4.6°C 84% Calm Calm 1.0 mph1.6 kmh 29.65 in1004.1 mb 0.00 in0.0 mm 0.00 in0.0 mm 0.02 in0.5 mm
06:50 PM 28.2°F-2.1°C 24.3°F-4.3°C 85% Calm Calm 1.0 mph1.6 kmh 29.65 in1004.1 mb 0.00 in0.0 mm 0.00 in0.0 mm 0.02 in0.5 mm
06:55 PM 27.9°F-2.3°C 23.9°F-4.5°C 85% Calm Calm 1.0 mph1.6 kmh 29.65 in1004.1 mb 0.00 in0.0 mm 0.00 in0.0 mm 0.02 in0.5 mm
07:00 PM 27.7°F-2.4°C 23.7°F-4.6°C 85% 1.0 mph NNE1.6 kmh NNE 1.0 mph1.6 kmh 29.65 in1004.1 mb 0.00 in0.0 mm 0.00 in0.0 mm 0.02 in0.5 mm
07:05 PM 27.7°F-2.4°C 23.7°F-4.6°C 85% 1.0 mph NNE1.6 kmh NNE 2.0 mph3.2 kmh 29.65 in1004.1 mb 0.00 in0.0 mm 0.00 in0.0 mm 0.02 in0.5 mm
07:10 PM 27.9°F-2.3°C 24.3°F-4.3°C 86% 1.0 mph NNE1.6 kmh NNE 2.0 mph3.2 kmh 29.65 in1004.1 mb 0.00 in0.0 mm 0.00 in0.0 mm 0.02 in0.5 mm
07:15 PM 28.0°F-2.2°C 24.4°F-4.2°C 86% 1.0 mph NNE1.6 kmh NNE 2.0 mph3.2 kmh 29.65 in1004.1 mb 0.00 in0.0 mm 0.00 in0.0 mm 0.02 in0.5 mm
07:20 PM 27.7°F-2.4°C 23.7°F-4.6°C 85% 1.0 mph NE1.6 kmh NE 2.0 mph3.2 kmh 29.65 in1004.1 mb 0.00 in0.0 mm 0.00 in0.0 mm 0.02 in0.5 mm
07:25 PM 27.3°F-2.6°C 23.4°F-4.8°C 85% 1.0 mph NNE1.6 kmh NNE 2.0 mph3.2 kmh 29.65 in1004.1 mb 0.00 in0.0 mm 0.00 in0.0 mm 0.02 in0.5 mm
07:30 PM 27.5°F-2.5°C 23.9°F-4.5°C 86% 1.0 mph NNE1.6 kmh NNE 1.0 mph1.6 kmh 29.65 in1004.1 mb 0.00 in0.0 mm 0.00 in0.0 mm 0.02 in0.5 mm
07:35 PM 27.3°F-2.6°C 23.7°F-4.6°C 86% 1.0 mph NNE1.6 kmh NNE 1.0 mph1.6 kmh 29.65 in1004.1 mb 0.00 in0.0 mm 0.00 in0.0 mm 0.02 in0.5 mm
07:40 PM 27.0°F-2.8°C 23.4°F-4.8°C 86% Calm Calm 1.0 mph1.6 kmh 29.65 in1004.1 mb 0.00 in0.0 mm 0.00 in0.0 mm 0.02 in0.5 mm
07:45 PM 26.8°F-2.9°C 23.2°F-4.9°C 86% Calm Calm 1.0 mph1.6 kmh 29.65 in1004.1 mb 0.00 in0.0 mm 0.00 in0.0 mm 0.02 in0.5 mm
07:50 PM 27.0°F-2.8°C 23.5°F-4.7°C 87% 1.0 mph NNE1.6 kmh NNE 1.0 mph1.6 kmh 29.65 in1004.1 mb 0.00 in0.0 mm 0.00 in0.0 mm 0.02 in0.5 mm
07:55 PM 27.1°F-2.7°C 23.7°F-4.6°C 87% 1.0 mph NNE1.6 kmh NNE 1.0 mph1.6 kmh 29.66 in1004.4 mb 0.00 in0.0 mm 0.00 in0.0 mm 0.02 in0.5 mm
08:00 PM 26.8°F-2.9°C 23.0°F-5.0°C 86% Calm Calm 1.0 mph1.6 kmh 29.65 in1004.1 mb 0.00 in0.0 mm 0.00 in0.0 mm 0.02 in0.5 mm
08:05 PM 26.1°F-3.3°C 22.5°F-5.3°C 86% Calm Calm 1.0 mph1.6 kmh 29.66 in1004.4 mb 0.00 in0.0 mm 0.00 in0.0 mm 0.02 in0.5 mm
08:10 PM 25.9°F-3.4°C 22.5°F-5.3°C 87% 1.0 mph NNE1.6 kmh NNE 2.0 mph3.2 kmh 29.66 in1004.4 mb 0.00 in0.0 mm 0.00 in0.0 mm 0.02 in0.5 mm
08:15 PM 26.1°F-3.3°C 23.0°F-5.0°C 88% 2.0 mph NNE3.2 kmh NNE 2.0 mph3.2 kmh 29.66 in1004.4 mb 0.00 in0.0 mm 0.00 in0.0 mm 0.02 in0.5 mm
08:20 PM 25.9°F-3.4°C 22.5°F-5.3°C 87% 1.0 mph NNE1.6 kmh NNE 2.0 mph3.2 kmh 29.65 in1004.1 mb 0.00 in0.0 mm 0.00 in0.0 mm 0.02 in0.5 mm
08:25 PM 25.5°F-3.6°C 22.5°F-5.3°C 88% 1.0 mph NE1.6 kmh NE 2.0 mph3.2 kmh 29.65 in1004.1 mb 0.00 in0.0 mm 0.00 in0.0 mm 0.02 in0.5 mm
08:30 PM 25.3°F-3.7°C 22.3°F-5.4°C 88% 1.0 mph NE1.6 kmh NE 1.0 mph1.6 kmh 29.66 in1004.4 mb 0.00 in0.0 mm 0.00 in0.0 mm 0.02 in0.5 mm
08:35 PM 25.0°F-3.9°C 21.9°F-5.6°C 88% Calm Calm 1.0 mph1.6 kmh 29.66 in1004.4 mb 0.00 in0.0 mm 0.00 in0.0 mm 0.02 in0.5 mm
08:40 PM 25.5°F-3.6°C 22.8°F-5.1°C 89% Calm Calm 1.0 mph1.6 kmh 29.66 in1004.4 mb 0.00 in0.0 mm 0.00 in0.0 mm 0.02 in0.5 mm
08:45 PM 25.9°F-3.4°C 23.0°F-5.0°C 89% Calm Calm 1.0 mph1.6 kmh 29.66 in1004.4 mb 0.00 in0.0 mm 0.00 in0.0 mm 0.02 in0.5 mm
08:50 PM 26.2°F-3.2°C 23.4°F-4.8°C 89% Calm Calm 1.0 mph1.6 kmh 29.66 in1004.4 mb 0.00 in0.0 mm 0.00 in0.0 mm 0.02 in0.5 mm
08:55 PM 26.4°F-3.1°C 23.5°F-4.7°C 89% 1.0 mph NE1.6 kmh NE 2.0 mph3.2 kmh 29.66 in1004.4 mb 0.00 in0.0 mm 0.00 in0.0 mm 0.02 in0.5 mm
09:00 PM 26.6°F-3.0°C 23.7°F-4.6°C 89% 1.0 mph NE1.6 kmh NE 2.0 mph3.2 kmh 29.66 in1004.4 mb 0.00 in0.0 mm 0.00 in0.0 mm 0.02 in0.5 mm
09:05 PM 26.8°F-2.9°C 24.1°F-4.4°C 89% 1.0 mph NE1.6 kmh NE 2.0 mph3.2 kmh 29.66 in1004.4 mb 0.00 in0.0 mm 0.00 in0.0 mm 0.02 in0.5 mm
09:10 PM 26.8°F-2.9°C 23.5°F-4.7°C 88% Calm Calm 1.0 mph1.6 kmh 29.66 in1004.4 mb 0.00 in0.0 mm 0.00 in0.0 mm 0.02 in0.5 mm
09:15 PM 26.4°F-3.1°C 23.4°F-4.8°C 88% Calm Calm 1.0 mph1.6 kmh 29.66 in1004.4 mb 0.00 in0.0 mm 0.00 in0.0 mm 0.02 in0.5 mm
09:20 PM 26.4°F-3.1°C 23.4°F-4.8°C 88% Calm Calm 1.0 mph1.6 kmh 29.66 in1004.4 mb 0.00 in0.0 mm 0.00 in0.0 mm 0.02 in0.5 mm
09:25 PM 25.7°F-3.5°C 22.6°F-5.2°C 88% Calm Calm -- 29.66 in1004.4 mb 0.00 in0.0 mm 0.00 in0.0 mm 0.02 in0.5 mm
09:30 PM 25.2°F-3.8°C 21.9°F-5.6°C 87% Calm Calm -- 29.66 in1004.4 mb 0.00 in0.0 mm 0.00 in0.0 mm 0.02 in0.5 mm
09:35 PM 24.4°F-4.2°C 21.4°F-5.9°C 88% Calm Calm -- 29.66 in1004.4 mb 0.00 in0.0 mm 0.00 in0.0 mm 0.02 in0.5 mm
09:40 PM 24.1°F-4.4°C 21.0°F-6.1°C 88% Calm Calm -- 29.66 in1004.4 mb 0.00 in0.0 mm 0.00 in0.0 mm 0.02 in0.5 mm
09:45 PM 23.5°F-4.7°C 20.5°F-6.4°C 88% Calm Calm -- 29.66 in1004.4 mb 0.00 in0.0 mm 0.00 in0.0 mm 0.02 in0.5 mm
09:50 PM 23.2°F-4.9°C 20.5°F-6.4°C 89% Calm Calm -- 29.66 in1004.4 mb 0.00 in0.0 mm 0.00 in0.0 mm 0.02 in0.5 mm
09:55 PM 23.4°F-4.8°C 20.8°F-6.2°C 90% Calm Calm -- 29.66 in1004.4 mb 0.00 in0.0 mm 0.00 in0.0 mm 0.02 in0.5 mm
10:00 PM 23.4°F-4.8°C 20.8°F-6.2°C 90% Calm Calm -- 29.66 in1004.4 mb 0.00 in0.0 mm 0.00 in0.0 mm 0.02 in0.5 mm
10:05 PM 23.2°F-4.9°C 20.7°F-6.3°C 90% Calm Calm -- 29.66 in1004.4 mb 0.00 in0.0 mm 0.00 in0.0 mm 0.02 in0.5 mm
10:10 PM 23.2°F-4.9°C 20.7°F-6.3°C 90% Calm Calm 1.0 mph1.6 kmh 29.66 in1004.4 mb 0.00 in0.0 mm 0.00 in0.0 mm 0.02 in0.5 mm
10:15 PM 24.1°F-4.4°C 21.9°F-5.6°C 91% Calm Calm 1.0 mph1.6 kmh 29.66 in1004.4 mb 0.00 in0.0 mm 0.00 in0.0 mm 0.02 in0.5 mm
10:20 PM 24.3°F-4.3°C 22.1°F-5.5°C 91% Calm Calm 1.0 mph1.6 kmh 29.66 in1004.4 mb 0.00 in0.0 mm 0.00 in0.0 mm 0.02 in0.5 mm
10:25 PM 24.6°F-4.1°C 22.3°F-5.4°C 91% Calm Calm -- 29.66 in1004.4 mb 0.00 in0.0 mm 0.00 in0.0 mm 0.02 in0.5 mm
10:30 PM 25.2°F-3.8°C 23.2°F-4.9°C 92% Calm Calm -- 29.66 in1004.4 mb 0.00 in0.0 mm 0.00 in0.0 mm 0.02 in0.5 mm
10:35 PM 25.5°F-3.6°C 23.5°F-4.7°C 92% Calm Calm -- 29.66 in1004.4 mb 0.00 in0.0 mm 0.00 in0.0 mm 0.02 in0.5 mm
10:40 PM 25.3°F-3.7°C 23.2°F-4.9°C 91% Calm Calm -- 29.66 in1004.4 mb 0.00 in0.0 mm 0.00 in0.0 mm 0.02 in0.5 mm
10:45 PM 25.3°F-3.7°C 23.0°F-5.0°C 91% Calm Calm -- 29.66 in1004.4 mb 0.00 in0.0 mm 0.00 in0.0 mm 0.02 in0.5 mm
10:50 PM 25.2°F-3.8°C 23.0°F-5.0°C 91% Calm Calm -- 29.66 in1004.4 mb 0.00 in0.0 mm 0.00 in0.0 mm 0.02 in0.5 mm
10:55 PM 25.3°F-3.7°C 23.2°F-4.9°C 91% Calm Calm -- 29.66 in1004.4 mb 0.00 in0.0 mm 0.00 in0.0 mm 0.02 in0.5 mm
11:00 PM 25.5°F-3.6°C 23.4°F-4.8°C 91% Calm Calm -- 29.66 in1004.4 mb 0.00 in0.0 mm 0.00 in0.0 mm 0.02 in0.5 mm
11:05 PM 25.9°F-3.4°C 23.7°F-4.6°C 91% Calm Calm -- 29.66 in1004.4 mb 0.00 in0.0 mm 0.00 in0.0 mm 0.02 in0.5 mm
11:10 PM 26.2°F-3.2°C 23.9°F-4.5°C 91% Calm Calm -- 29.66 in1004.4 mb 0.00 in0.0 mm 0.00 in0.0 mm 0.02 in0.5 mm
11:15 PM 26.2°F-3.2°C 24.1°F-4.4°C 91% Calm Calm -- 29.66 in1004.4 mb 0.00 in0.0 mm 0.00 in0.0 mm 0.02 in0.5 mm
11:20 PM 25.9°F-3.4°C 23.7°F-4.6°C 91% Calm Calm -- 29.67 in1004.7 mb 0.00 in0.0 mm 0.00 in0.0 mm 0.02 in0.5 mm
11:25 PM 25.5°F-3.6°C 23.4°F-4.8°C 91% Calm Calm -- 29.67 in1004.7 mb 0.00 in0.0 mm 0.00 in0.0 mm 0.02 in0.5 mm
11:30 PM 25.5°F-3.6°C 23.2°F-4.9°C 91% Calm Calm -- 29.67 in1004.7 mb 0.00 in0.0 mm 0.00 in0.0 mm 0.02 in0.5 mm
11:35 PM 26.1°F-3.3°C 23.7°F-4.6°C 91% Calm Calm 1.0 mph1.6 kmh 29.67 in1004.7 mb 0.00 in0.0 mm 0.00 in0.0 mm 0.02 in0.5 mm
11:40 PM 26.1°F-3.3°C 23.9°F-4.5°C 91% Calm Calm 1.0 mph1.6 kmh 29.67 in1004.7 mb 0.00 in0.0 mm 0.00 in0.0 mm 0.02 in0.5 mm
11:45 PM 26.2°F-3.2°C 24.1°F-4.4°C 91% Calm Calm 1.0 mph1.6 kmh 29.67 in1004.7 mb 0.00 in0.0 mm 0.00 in0.0 mm 0.02 in0.5 mm
11:50 PM 26.4°F-3.1°C 24.4°F-4.2°C 92% Calm Calm 2.0 mph3.2 kmh 29.66 in1004.4 mb 0.00 in0.0 mm 0.00 in0.0 mm 0.02 in0.5 mm
11:55 PM 26.4°F-3.1°C 24.4°F-4.2°C 92% Calm Calm 2.0 mph3.2 kmh 29.66 in1004.4 mb 0.00 in0.0 mm 0.00 in0.0 mm 0.02 in0.5 mm